International Virtual Aviation Organisation

Eastern Europe and Northern Asia MCD

 
URMM 200930Z 11012MPS 9999 NSC 23/09 Q1004 R12/090070 TEMPO 10010G18MPS RMK QFE725/0967
QNH:(hPa/inHg/mmHg)1004 / 29.65 / 753
QFE:(hPa/inHg/mmHg)965 / 28.50 / 724
Temperature23
Dew Point9
Visibility> 10000
Weather
Cloud Cover
Transition Height900 m./4000 ft.
Transition LevelFL60
SQUAWK